Archival Weather

Snohomish County (Paine Fld)

Everett, Washington (KPAE)

Report from: Friday, November 17, 2023 8:53 PM PST
Current time: Monday, June 24, 2024 2:37 AM PDT

Current weather – Weather history – Daily summaries
Weather forecast

Temperature5.0°C (41.0°F)
Dew point1.7°C (35.1°F)
Winds Calm
Visibility10 mi. (16.1 km)
Clouds Sky clear
Altimeter29.92 in.Hg (1013 mB)
Relative humidity79 %
Density altitude-1,111 ft. (-338 m)
Sea-level pressure101.3 kPa (1013 mB, 29.93 in.Hg)
Remarks Automated weather observing station with precipitation discriminator
Flight conditions Visual Meteorological Conditions
Raw dataKPAE 180453Z 00000KT 10SM CLR 05/02 A2992 RMK AO2 SLP134 T00500017
An error has occurred. This application may no longer respond until reloaded. Reload 🗙